Terminal Aerodrome Forecast
Issued by NWS Tulsa, OK

Home | Current Version | Previous Version | Text Only | Print | Product List | Glossary On
Versions: 1 2 3 4 5 6 7 8 9 10 11 12 13 14 15
000
FTUS44 KTSA 050522
TAFTUL
TAF
KTUL 050522Z 0506/0606 00000KT P6SM BKN250
     FM051200 20008KT P6SM SCT040 BKN120 PROB30 0518/0524 5SM -TSRA
      BKN040CB
     FM060100 17007KT P6SM SCT250=

USA.gov is the U.S. government's official web portal to all federal, state and local government web resources and services.